Terminal Aerodrome Forecast
Issued by NWS

Home | Current Version | Previous Version | Text Only | Print | Product List | Glossary On
Versions: 1 2 3 4 5 6 7 8 9 10 11 12 13 14 15 16 17 18 19 20 21 22
000
FTUS43 KAPX 102300
TAFMBL
TAF
KMBL 102321Z 1100/1124 VRB03KT P6SM SKC
     FM110800 00000KT 2SM BR SCT005
      TEMPO 1109/1112 3/4SM BR BKN005
     FM111330 22005KT P6SM SCT050
     FM111700 24008KT P6SM FEW050 BKN200
      AMD LTD TO CLD VIS AND WIND=

USA.gov is the U.S. government's official web portal to all federal, state and local government web resources and services.